createdAt,value
2022-09-06T00:00:05.626Z,0.00
2022-09-06T00:01:05.605Z,0.00
2022-09-06T00:02:05.592Z,0.00
2022-09-06T00:03:05.652Z,0.00
2022-09-06T00:04:05.622Z,0.00
2022-09-06T00:05:05.562Z,0.00
2022-09-06T00:06:05.546Z,0.00
2022-09-06T00:07:05.529Z,0.00
2022-09-06T00:08:05.523Z,0.00
2022-09-06T00:09:05.503Z,0.00
2022-09-06T00:10:05.494Z,0.00
2022-09-06T00:11:05.485Z,0.00
2022-09-06T00:12:05.467Z,0.00
2022-09-06T00:13:05.458Z,0.00
2022-09-06T00:14:05.442Z,0.00
2022-09-06T00:15:05.430Z,0.00
2022-09-06T00:16:05.447Z,0.00
2022-09-06T00:17:05.403Z,0.00
2022-09-06T00:18:05.389Z,0.00
2022-09-06T00:19:05.383Z,0.00
2022-09-06T00:20:05.364Z,0.00
2022-09-06T00:21:05.354Z,0.00
2022-09-06T00:22:05.337Z,0.00
2022-09-06T00:23:05.330Z,0.00
2022-09-06T00:24:05.313Z,0.00
2022-09-06T00:25:05.300Z,0.00
2022-09-06T00:26:05.285Z,0.00
2022-09-06T00:27:05.277Z,0.00
2022-09-06T00:28:05.264Z,0.00
2022-09-06T00:29:05.253Z,0.00
2022-09-06T00:30:05.236Z,0.00
2022-09-06T00:31:05.259Z,0.00
2022-09-06T00:32:05.212Z,0.00
2022-09-06T00:33:05.201Z,0.00
2022-09-06T00:34:05.195Z,0.00
2022-09-06T00:35:05.174Z,0.00
2022-09-06T00:36:05.167Z,0.00
2022-09-06T00:37:05.154Z,0.00
2022-09-06T00:38:05.140Z,0.00
2022-09-06T00:39:05.125Z,0.00
2022-09-06T00:40:05.186Z,0.00
2022-09-06T00:41:05.100Z,0.00
2022-09-06T00:42:05.084Z,0.00
2022-09-06T00:43:05.070Z,0.00
2022-09-06T00:44:05.058Z,0.00
2022-09-06T00:45:05.045Z,0.00
2022-09-06T00:46:05.064Z,0.00
2022-09-06T00:47:05.026Z,0.00
2022-09-06T00:48:05.007Z,0.00
2022-09-06T00:49:04.998Z,0.00
2022-09-06T00:50:04.980Z,0.00
2022-09-06T00:51:04.970Z,0.00
2022-09-06T00:52:04.955Z,0.00
2022-09-06T00:53:04.944Z,0.00
2022-09-06T00:54:04.930Z,0.00
2022-09-06T00:55:04.919Z,0.00
2022-09-06T00:56:04.902Z,0.00
2022-09-06T00:57:04.894Z,0.00
2022-09-06T00:58:04.874Z,0.00
2022-09-06T00:59:04.863Z,0.00
2022-09-06T01:00:04.850Z,0.00
2022-09-06T01:01:04.899Z,0.00
2022-09-06T01:02:04.926Z,0.00
2022-09-06T01:03:04.812Z,0.00
2022-09-06T01:04:04.799Z,0.00
2022-09-06T01:05:04.793Z,0.00
2022-09-06T01:06:04.772Z,0.00
2022-09-06T01:07:04.766Z,0.00
2022-09-06T01:08:04.746Z,0.00
2022-09-06T01:09:04.735Z,0.00
2022-09-06T01:10:04.729Z,0.00
2022-09-06T01:11:04.706Z,0.00
2022-09-06T01:12:04.693Z,0.00
2022-09-06T01:13:04.688Z,0.00
2022-09-06T01:14:04.669Z,0.00
2022-09-06T01:15:04.658Z,0.00
2022-09-06T01:16:04.663Z,0.00
2022-09-06T01:17:04.632Z,0.00
2022-09-06T01:18:04.616Z,0.00
2022-09-06T01:19:04.607Z,0.00
2022-09-06T01:20:04.590Z,0.00
2022-09-06T01:21:04.580Z,0.00
2022-09-06T01:22:04.568Z,0.00
2022-09-06T01:23:04.553Z,0.00
2022-09-06T01:24:04.540Z,0.00
2022-09-06T01:25:04.529Z,0.00
2022-09-06T01:26:04.513Z,0.00
2022-09-06T01:27:04.504Z,0.00
2022-09-06T01:28:04.490Z,0.00
2022-09-06T01:29:04.478Z,0.00
2022-09-06T01:30:04.462Z,0.00
2022-09-06T01:31:04.486Z,0.00
2022-09-06T01:32:04.440Z,0.00
2022-09-06T01:33:04.425Z,0.00
2022-09-06T01:34:04.410Z,0.00
2022-09-06T01:35:04.402Z,0.00
2022-09-06T01:36:04.392Z,0.00
2022-09-06T01:37:10.453Z,0.00
2022-09-06T01:38:04.359Z,0.00
2022-09-06T01:39:04.344Z,0.00
2022-09-06T01:40:04.413Z,0.00
2022-09-06T01:41:04.325Z,0.00
2022-09-06T01:42:04.309Z,0.00
2022-09-06T01:43:07.889Z,0.00
2022-09-06T01:44:04.281Z,0.00
2022-09-06T01:45:04.267Z,0.00
2022-09-06T01:46:04.321Z,0.00
2022-09-06T01:47:04.247Z,0.00
2022-09-06T01:48:04.240Z,0.00
2022-09-06T01:49:04.216Z,0.00
2022-09-06T01:50:04.212Z,0.00
2022-09-06T01:51:04.191Z,0.00
2022-09-06T01:52:04.180Z,0.00
2022-09-06T01:53:04.166Z,0.00
2022-09-06T01:54:04.158Z,0.00
2022-09-06T01:55:04.139Z,0.00
2022-09-06T01:56:04.125Z,0.00
2022-09-06T01:57:04.113Z,0.00
2022-09-06T01:58:04.104Z,0.00
2022-09-06T01:59:04.085Z,0.00
2022-09-06T02:00:04.076Z,0.00
2022-09-06T02:01:04.155Z,0.00
2022-09-06T02:02:04.144Z,0.00
2022-09-06T02:03:04.036Z,0.00
2022-09-06T02:04:04.032Z,0.00
2022-09-06T02:05:04.011Z,0.00
2022-09-06T02:06:04.013Z,0.00
2022-09-06T02:07:03.980Z,0.00
2022-09-06T02:08:03.969Z,0.00
2022-09-06T02:09:03.959Z,0.00
2022-09-06T02:10:03.945Z,0.00
2022-09-06T02:11:03.946Z,0.00
2022-09-06T02:12:03.923Z,0.00
2022-09-06T02:13:03.905Z,0.00
2022-09-06T02:14:03.893Z,0.00
2022-09-06T02:15:03.881Z,0.00
2022-09-06T02:16:03.870Z,0.00
2022-09-06T02:17:03.961Z,0.00
2022-09-06T02:18:03.843Z,0.00
2022-09-06T02:19:03.825Z,0.00
2022-09-06T02:20:03.815Z,0.00
2022-09-06T02:21:03.806Z,0.00
2022-09-06T02:22:03.790Z,0.00
2022-09-06T02:23:03.775Z,0.00
2022-09-06T02:24:03.762Z,0.00
2022-09-06T02:25:03.751Z,0.00
2022-09-06T02:26:03.737Z,0.00
2022-09-06T02:27:03.727Z,0.00
2022-09-06T02:28:03.717Z,0.00
2022-09-06T02:29:03.699Z,0.00
2022-09-06T02:30:03.689Z,0.00
2022-09-06T02:31:03.776Z,0.00
2022-09-06T02:32:03.666Z,0.00
2022-09-06T02:33:03.655Z,0.00
2022-09-06T02:34:03.635Z,0.00
2022-09-06T02:35:03.618Z,0.00
2022-09-06T02:36:03.610Z,0.00
2022-09-06T02:37:03.595Z,0.00
2022-09-06T02:38:03.589Z,0.00
2022-09-06T02:39:03.570Z,0.00
2022-09-06T02:40:03.610Z,0.00
2022-09-06T02:41:03.544Z,0.00
2022-09-06T02:42:03.533Z,0.00
2022-09-06T02:43:03.518Z,0.00
2022-09-06T02:44:03.510Z,0.00
2022-09-06T02:45:03.492Z,0.00
2022-09-06T02:46:03.607Z,0.00
2022-09-06T02:47:03.492Z,0.00
2022-09-06T02:48:03.456Z,0.00
2022-09-06T02:49:03.437Z,0.00
2022-09-06T02:50:03.428Z,0.00
2022-09-06T02:51:03.412Z,0.00
2022-09-06T02:52:03.400Z,0.00
2022-09-06T02:53:03.387Z,0.00
2022-09-06T02:54:03.380Z,0.00
2022-09-06T02:55:03.362Z,0.00
2022-09-06T02:56:03.349Z,0.00
2022-09-06T02:57:03.332Z,0.00
2022-09-06T02:58:03.316Z,0.00
2022-09-06T02:59:03.305Z,0.00
2022-09-06T03:00:03.296Z,0.00
2022-09-06T03:01:03.378Z,0.00
2022-09-06T03:02:03.324Z,0.00
2022-09-06T03:03:03.250Z,0.00
2022-09-06T03:04:03.241Z,0.00
2022-09-06T03:05:03.225Z,0.00
2022-09-06T03:06:03.213Z,0.00
2022-09-06T03:07:03.199Z,0.00
2022-09-06T03:08:03.184Z,0.00
2022-09-06T03:09:03.173Z,0.00
2022-09-06T03:10:03.158Z,0.00
2022-09-06T03:11:03.143Z,0.00
2022-09-06T03:12:03.132Z,0.00
2022-09-06T03:13:03.121Z,0.00
2022-09-06T03:14:03.105Z,0.00
2022-09-06T03:15:03.093Z,0.00
2022-09-06T03:16:03.075Z,0.00
2022-09-06T03:17:03.119Z,0.00
2022-09-06T03:18:03.049Z,0.00
2022-09-06T03:19:03.037Z,0.00
2022-09-06T03:20:03.025Z,0.00
2022-09-06T03:21:03.011Z,0.00
2022-09-06T03:22:02.997Z,0.00
2022-09-06T03:23:02.986Z,0.00
2022-09-06T03:24:02.973Z,0.00
2022-09-06T03:25:02.961Z,0.00
2022-09-06T03:26:02.942Z,0.00
2022-09-06T03:27:02.930Z,0.00
2022-09-06T03:28:02.921Z,0.00
2022-09-06T03:29:02.901Z,0.00
2022-09-06T03:30:02.894Z,0.00
2022-09-06T03:31:02.923Z,0.00
2022-09-06T03:32:02.866Z,0.00
2022-09-06T03:33:03.156Z,0.00
2022-09-06T03:34:02.842Z,0.00
2022-09-06T03:35:02.825Z,0.00
2022-09-06T03:36:02.815Z,0.00
2022-09-06T03:37:02.801Z,0.00
2022-09-06T03:38:02.787Z,0.00
2022-09-06T03:39:02.770Z,0.00
2022-09-06T03:40:02.867Z,0.00
2022-09-06T03:41:02.745Z,0.00
2022-09-06T03:42:02.739Z,0.00
2022-09-06T03:43:02.724Z,0.00
2022-09-06T03:44:02.706Z,0.00
2022-09-06T03:45:02.694Z,0.00
2022-09-06T03:46:02.784Z,0.00
2022-09-06T03:47:02.665Z,0.00
2022-09-06T03:48:02.654Z,0.00
2022-09-06T03:49:02.640Z,0.00
2022-09-06T03:50:02.626Z,0.00
2022-09-06T03:51:02.615Z,0.00
2022-09-06T03:52:02.603Z,0.00
2022-09-06T03:53:02.590Z,0.00
2022-09-06T03:54:02.576Z,0.00
2022-09-06T03:55:02.564Z,0.00
2022-09-06T03:56:02.550Z,0.00
2022-09-06T03:57:02.532Z,0.00
2022-09-06T03:58:02.519Z,0.00
2022-09-06T03:59:02.503Z,0.00
2022-09-06T04:00:02.501Z,0.00
2022-09-06T04:01:02.545Z,0.00
2022-09-06T04:02:02.528Z,0.00
2022-09-06T04:03:02.452Z,0.00
2022-09-06T04:04:02.442Z,0.00
2022-09-06T04:05:02.441Z,0.00
2022-09-06T04:06:02.418Z,0.00
2022-09-06T04:07:02.408Z,0.00
2022-09-06T04:08:02.389Z,0.00
2022-09-06T04:09:02.380Z,0.00
2022-09-06T04:10:02.372Z,0.00
2022-09-06T04:11:02.351Z,0.00
2022-09-06T04:12:02.338Z,0.00
2022-09-06T04:13:02.319Z,0.00
2022-09-06T04:14:02.310Z,0.00
2022-09-06T04:15:02.297Z,0.00
2022-09-06T04:16:02.282Z,0.00
2022-09-06T04:17:02.328Z,0.00
2022-09-06T04:18:04.985Z,0.00
2022-09-06T04:19:02.246Z,0.00
2022-09-06T04:20:02.253Z,0.00
2022-09-06T04:21:02.226Z,4.00
2022-09-06T04:22:02.211Z,4.00
2022-09-06T04:23:02.191Z,4.00
2022-09-06T04:24:02.175Z,4.00
2022-09-06T04:25:02.168Z,4.00
2022-09-06T04:26:02.153Z,4.00
2022-09-06T04:27:02.144Z,4.00
2022-09-06T04:28:02.127Z,4.00
2022-09-06T04:29:02.119Z,4.00
2022-09-06T04:30:02.103Z,4.00
2022-09-06T04:31:04.542Z,0.00
2022-09-06T04:32:02.166Z,0.00
2022-09-06T04:33:02.067Z,4.00
2022-09-06T04:34:02.050Z,4.00
2022-09-06T04:35:02.044Z,4.00
2022-09-06T04:36:02.026Z,8.00
2022-09-06T04:37:02.014Z,8.00
2022-09-06T04:38:02.007Z,4.00
2022-09-06T04:39:01.979Z,4.00
2022-09-06T04:40:02.083Z,4.00
2022-09-06T04:41:01.955Z,8.00
2022-09-06T04:42:01.954Z,8.00
2022-09-06T04:43:01.940Z,8.00
2022-09-06T04:44:01.921Z,4.00
2022-09-06T04:45:01.899Z,8.00
2022-09-06T04:46:02.080Z,8.00
2022-09-06T04:47:04.316Z,8.00
2022-09-06T04:48:01.868Z,8.00
2022-09-06T04:49:01.852Z,12.00
2022-09-06T04:50:01.841Z,12.00
2022-09-06T04:51:01.825Z,8.00
2022-09-06T04:52:01.812Z,8.00
2022-09-06T04:53:01.794Z,12.00
2022-09-06T04:54:01.780Z,12.00
2022-09-06T04:55:01.772Z,12.00
2022-09-06T04:56:01.761Z,16.00
2022-09-06T04:57:01.745Z,16.00
2022-09-06T04:58:01.739Z,16.00
2022-09-06T04:59:01.717Z,12.00
2022-09-06T05:00:01.706Z,12.00
2022-09-06T05:01:01.780Z,16.00
2022-09-06T05:02:01.740Z,16.00
2022-09-06T05:03:01.669Z,16.00
2022-09-06T05:04:01.655Z,16.00
2022-09-06T05:05:01.642Z,16.00
2022-09-06T05:06:01.626Z,20.00
2022-09-06T05:07:01.612Z,20.00
2022-09-06T05:08:01.602Z,20.00
2022-09-06T05:09:01.585Z,20.00
2022-09-06T05:10:01.577Z,20.00
2022-09-06T05:11:01.560Z,24.00
2022-09-06T05:12:01.550Z,20.00
2022-09-06T05:13:01.535Z,24.00
2022-09-06T05:14:01.545Z,28.00
2022-09-06T05:15:01.504Z,32.00
2022-09-06T05:16:01.533Z,36.00
2022-09-06T05:17:01.479Z,36.00
2022-09-06T05:18:01.464Z,48.00
2022-09-06T05:19:01.447Z,56.00
2022-09-06T05:20:01.444Z,68.00
2022-09-06T05:21:01.433Z,80.00
2022-09-06T05:22:01.411Z,92.00
2022-09-06T05:23:01.396Z,100.00
2022-09-06T05:24:01.387Z,108.00
2022-09-06T05:25:01.376Z,112.00
2022-09-06T05:26:01.363Z,116.00
2022-09-06T05:27:01.343Z,124.00
2022-09-06T05:28:01.331Z,128.00
2022-09-06T05:29:01.316Z,132.00
2022-09-06T05:30:01.303Z,132.00
2022-09-06T05:31:01.288Z,132.00
2022-09-06T05:32:01.348Z,132.00
2022-09-06T05:33:01.265Z,136.00
2022-09-06T05:34:01.253Z,144.00
2022-09-06T05:35:01.237Z,144.00
2022-09-06T05:36:01.225Z,148.00
2022-09-06T05:37:01.210Z,144.00
2022-09-06T05:38:01.196Z,144.00
2022-09-06T05:39:01.183Z,140.00
2022-09-06T05:40:01.281Z,132.00
2022-09-06T05:41:01.163Z,132.00
2022-09-06T05:42:01.143Z,136.00
2022-09-06T05:43:01.136Z,136.00
2022-09-06T05:44:01.125Z,140.00
2022-09-06T05:45:01.102Z,140.00
2022-09-06T05:46:01.158Z,140.00
2022-09-06T05:47:01.075Z,148.00
2022-09-06T05:48:01.062Z,148.00
2022-09-06T05:49:01.074Z,148.00
2022-09-06T05:50:01.034Z,156.00
2022-09-06T05:51:01.021Z,164.00
2022-09-06T05:52:01.010Z,164.00
2022-09-06T05:53:00.995Z,172.00
2022-09-06T05:54:00.985Z,180.00
2022-09-06T05:55:00.970Z,184.00
2022-09-06T05:56:00.956Z,188.00
2022-09-06T05:57:00.943Z,196.00
2022-09-06T05:58:00.930Z,200.00
2022-09-06T05:59:00.915Z,204.00
2022-09-06T06:00:00.900Z,204.00
2022-09-06T06:01:00.952Z,212.00
2022-09-06T06:02:04.286Z,212.00
2022-09-06T06:03:00.857Z,216.00
2022-09-06T06:04:00.858Z,224.00
2022-09-06T06:05:00.834Z,236.00
2022-09-06T06:06:00.826Z,248.00
2022-09-06T06:07:00.807Z,264.00
2022-09-06T06:08:00.795Z,280.00
2022-09-06T06:09:00.786Z,300.00
2022-09-06T06:10:00.779Z,324.00
2022-09-06T06:11:00.749Z,336.00
2022-09-06T06:12:00.740Z,356.00
2022-09-06T06:13:00.722Z,356.00
2022-09-06T06:14:00.718Z,372.00
2022-09-06T06:15:00.698Z,368.00
2022-09-06T06:16:00.710Z,364.00
2022-09-06T06:17:00.756Z,360.00
2022-09-06T06:18:00.665Z,356.00
2022-09-06T06:19:00.650Z,344.00
2022-09-06T06:20:00.632Z,328.00
2022-09-06T06:21:00.625Z,308.00
2022-09-06T06:22:00.604Z,288.00
2022-09-06T06:23:00.590Z,280.00
2022-09-06T06:24:00.575Z,264.00
2022-09-06T06:25:00.561Z,260.00
2022-09-06T06:26:00.556Z,256.00
2022-09-06T06:27:00.538Z,260.00
2022-09-06T06:28:00.521Z,276.00
2022-09-06T06:29:00.511Z,288.00
2022-09-06T06:30:00.494Z,312.00
2022-09-06T06:31:00.482Z,336.00
2022-09-06T06:32:00.581Z,368.00
2022-09-06T06:33:00.455Z,388.00
2022-09-06T06:34:00.440Z,400.00
2022-09-06T06:35:00.425Z,416.00
2022-09-06T06:36:00.413Z,440.00
2022-09-06T06:37:00.399Z,464.00
2022-09-06T06:38:00.385Z,488.00
2022-09-06T06:39:00.375Z,508.00
2022-09-06T06:40:00.432Z,536.00
2022-09-06T06:41:04.531Z,568.00
2022-09-06T06:42:00.329Z,604.00
2022-09-06T06:43:00.322Z,640.00
2022-09-06T06:44:00.304Z,704.00
2022-09-06T06:45:00.289Z,776.00
2022-09-06T06:46:00.295Z,828.00
2022-09-06T06:47:00.266Z,860.00
2022-09-06T06:48:00.249Z,892.00
2022-09-06T06:49:00.235Z,924.00
2022-09-06T06:50:00.239Z,976.00
2022-09-06T06:51:00.210Z,1044.00
2022-09-06T06:52:00.190Z,1120.00
2022-09-06T06:53:00.176Z,1204.00
2022-09-06T06:54:00.209Z,1300.00
2022-09-06T06:55:00.153Z,1396.00
2022-09-06T06:56:00.140Z,1484.00
2022-09-06T06:57:00.130Z,1592.00
2022-09-06T06:58:00.113Z,1704.00
2022-09-06T06:59:00.103Z,1824.00
2022-09-06T07:00:00.091Z,1972.00
2022-09-06T07:01:00.187Z,2120.00
2022-09-06T07:02:00.214Z,2252.00
2022-09-06T07:03:00.082Z,2360.00
2022-09-06T07:04:00.030Z,2492.00
2022-09-06T07:05:00.386Z,2592.00
2022-09-06T07:06:15.400Z,2748.00
2022-09-06T07:07:59.972Z,3100.00
2022-09-06T07:08:59.966Z,3232.00
2022-09-06T07:10:59.939Z,3288.00
2022-09-06T07:11:59.920Z,3280.00
2022-09-06T07:12:59.912Z,3308.00
2022-09-06T07:13:59.894Z,3268.00
2022-09-06T07:14:59.888Z,3328.00
2022-09-06T07:15:59.911Z,3460.00
2022-09-06T07:16:59.854Z,3264.00
2022-09-06T07:17:59.841Z,3136.00
2022-09-06T07:18:59.858Z,2992.00
2022-09-06T07:20:15.501Z,2996.00
2022-09-06T07:22:04.315Z,3436.00
2022-09-06T07:24:07.901Z,4924.00
2022-09-06T07:24:59.748Z,17184.00
2022-09-06T07:25:59.735Z,8996.00
2022-09-06T07:28:01.600Z,35968.00
2022-09-06T07:28:59.700Z,10020.00
2022-09-06T07:29:59.689Z,7648.00
2022-09-06T07:30:59.738Z,7228.00
2022-09-06T07:32:14.939Z,6864.00
2022-09-06T07:32:59.659Z,7880.00
2022-09-06T07:33:59.641Z,8856.00
2022-09-06T07:34:59.623Z,15552.00
2022-09-06T07:35:59.620Z,20832.00
2022-09-06T07:36:59.601Z,89280.00
2022-09-06T07:37:59.591Z,81888.00
2022-09-06T07:38:59.589Z,84864.00
2022-09-06T07:39:59.635Z,82080.00
2022-09-06T07:40:59.557Z,82080.00
2022-09-06T07:41:59.556Z,83008.00
2022-09-06T07:42:59.539Z,82560.00
2022-09-06T07:43:59.534Z,82400.00
2022-09-06T07:44:59.528Z,82112.00
2022-09-06T07:45:59.521Z,80480.00
2022-09-06T07:47:59.507Z,86240.00
2022-09-06T07:48:59.510Z,86880.00
2022-09-06T07:50:59.496Z,85984.00
2022-09-06T07:51:59.540Z,83968.00
2022-09-06T07:54:13.271Z,84096.00
2022-09-06T07:54:59.495Z,84064.00
2022-09-06T07:55:59.484Z,87520.00
2022-09-06T07:56:59.491Z,86368.00
2022-09-06T07:57:59.502Z,83680.00
2022-09-06T07:58:59.485Z,83680.00
2022-09-06T07:59:59.483Z,83680.00
2022-09-06T08:00:59.536Z,85760.00
2022-09-06T08:01:59.577Z,86816.00
2022-09-06T08:02:59.498Z,88960.00
2022-09-06T08:03:59.492Z,88480.00
2022-09-06T08:04:59.641Z,87552.00
2022-09-06T08:06:14.999Z,88640.00
2022-09-06T08:08:59.847Z,86592.00
2022-09-06T08:09:59.507Z,77536.00
2022-09-06T08:10:59.511Z,84000.00
2022-09-06T08:11:59.508Z,88224.00
2022-09-06T08:12:59.522Z,87456.00
2022-09-06T08:13:59.519Z,83616.00
2022-09-06T08:14:59.524Z,85440.00
2022-09-06T08:15:59.552Z,83648.00
2022-09-06T08:16:59.533Z,77728.00
2022-09-06T08:17:59.537Z,82304.00
2022-09-06T08:18:59.542Z,81696.00
2022-09-06T08:19:59.545Z,76992.00
2022-09-06T08:20:59.549Z,76448.00
2022-09-06T08:21:59.553Z,79488.00
2022-09-06T08:22:59.559Z,81632.00
2022-09-06T08:23:59.561Z,81504.00
2022-09-06T08:24:59.575Z,81184.00
2022-09-06T08:25:59.574Z,79776.00
2022-09-06T08:26:59.608Z,79360.00
2022-09-06T08:27:59.589Z,74880.00
2022-09-06T08:28:59.598Z,78048.00
2022-09-06T08:29:59.603Z,77760.00
2022-09-06T08:30:59.601Z,73920.00
2022-09-06T08:31:59.679Z,69120.00
2022-09-06T08:32:59.616Z,69984.00
2022-09-06T08:33:59.622Z,73312.00
2022-09-06T08:34:59.627Z,71200.00
2022-09-06T08:35:59.632Z,68512.00
2022-09-06T08:36:59.637Z,75168.00
2022-09-06T08:37:59.646Z,78048.00
2022-09-06T08:38:59.651Z,74816.00
2022-09-06T08:39:59.704Z,81248.00
2022-09-06T08:40:59.668Z,81760.00
2022-09-06T08:41:59.669Z,79936.00
2022-09-06T08:42:59.678Z,72992.00
2022-09-06T08:44:59.691Z,58592.00
2022-09-06T08:45:59.696Z,61088.00
2022-09-06T08:46:59.812Z,69088.00
2022-09-06T08:47:59.707Z,72800.00
2022-09-06T08:48:59.714Z,75552.00
2022-09-06T08:49:59.719Z,74368.00
2022-09-06T08:50:59.726Z,73504.00
2022-09-06T08:51:59.731Z,72640.00
2022-09-06T08:53:16.904Z,71168.00
2022-09-06T08:53:59.747Z,70176.00
2022-09-06T08:54:59.747Z,65472.00
2022-09-06T08:55:59.761Z,70816.00
2022-09-06T08:56:59.764Z,67840.00
2022-09-06T08:57:59.767Z,65280.00
2022-09-06T08:58:59.780Z,69312.00
2022-09-06T08:59:59.780Z,62784.00
2022-09-06T09:00:59.815Z,51232.00
2022-09-06T09:01:59.818Z,41728.00
2022-09-06T09:02:59.802Z,44128.00
2022-09-06T09:03:59.802Z,46592.00
2022-09-06T09:04:59.809Z,46560.00
2022-09-06T09:05:59.811Z,48608.00
2022-09-06T09:06:59.823Z,56608.00
2022-09-06T09:07:59.820Z,62688.00
2022-09-06T09:08:59.825Z,61536.00
2022-09-06T09:09:59.835Z,63424.00
2022-09-06T09:10:59.851Z,60320.00
2022-09-06T09:11:59.832Z,58720.00
2022-09-06T09:12:59.847Z,56384.00
2022-09-06T09:13:59.846Z,54560.00
2022-09-06T09:14:59.855Z,54432.00
2022-09-06T09:15:59.902Z,52672.00
2022-09-06T09:16:59.858Z,48864.00
2022-09-06T09:17:59.882Z,43520.00
2022-09-06T09:18:59.875Z,37888.00
2022-09-06T09:19:59.864Z,38016.00
2022-09-06T09:20:59.871Z,33920.00
2022-09-06T09:21:59.870Z,30400.00
2022-09-06T09:22:59.879Z,29696.00
2022-09-06T09:23:59.881Z,30720.00
2022-09-06T09:24:59.878Z,29984.00
2022-09-06T09:25:59.881Z,28096.00
2022-09-06T09:26:59.898Z,25248.00
2022-09-06T09:27:59.887Z,20320.00
2022-09-06T09:28:59.893Z,17472.00
2022-09-06T09:30:59.952Z,13272.00
2022-09-06T09:31:59.990Z,12420.00
2022-09-06T09:32:59.904Z,11852.00
2022-09-06T09:33:59.900Z,11396.00
2022-09-06T09:34:59.905Z,11060.00
2022-09-06T09:35:59.904Z,10712.00
2022-09-06T09:38:05.940Z,10092.00
2022-09-06T09:38:59.913Z,9816.00
2022-09-06T09:39:59.966Z,9604.00
2022-09-06T09:40:59.910Z,9432.00
2022-09-06T09:41:59.913Z,9244.00
2022-09-06T09:42:59.911Z,9064.00
2022-09-06T09:44:04.182Z,8844.00
2022-09-06T09:44:59.914Z,8644.00
2022-09-06T09:45:59.913Z,8500.00
2022-09-06T09:47:00.019Z,8328.00
2022-09-06T09:47:59.912Z,8268.00
2022-09-06T09:48:59.914Z,8264.00
2022-09-06T09:49:59.917Z,8320.00
2022-09-06T09:50:59.921Z,8196.00
2022-09-06T09:51:59.914Z,8296.00
2022-09-06T09:52:59.940Z,8088.00
2022-09-06T09:53:59.917Z,2328.00
2022-09-06T09:54:59.913Z,2348.00
2022-09-06T09:55:59.916Z,2340.00
2022-09-06T09:56:59.921Z,2356.00
2022-09-06T09:57:59.912Z,2360.00
2022-09-06T09:58:59.909Z,2356.00
2022-09-06T09:59:59.910Z,2376.00
2022-09-06T10:00:59.958Z,2400.00
2022-09-06T10:01:59.911Z,2392.00
2022-09-06T10:02:59.945Z,2384.00
2022-09-06T10:04:59.905Z,2380.00
2022-09-06T10:06:02.603Z,2396.00
2022-09-06T10:07:59.893Z,2364.00
2022-09-06T10:08:59.891Z,2372.00
2022-09-06T10:09:59.894Z,2376.00
2022-09-06T10:10:59.897Z,2380.00
2022-09-06T10:11:59.886Z,2428.00
2022-09-06T10:12:59.886Z,2432.00
2022-09-06T10:13:59.886Z,2440.00
2022-09-06T10:15:03.575Z,2472.00
2022-09-06T10:15:59.954Z,2452.00
2022-09-06T10:16:59.864Z,2464.00
2022-09-06T10:17:59.869Z,2444.00
2022-09-06T10:18:59.852Z,2488.00
2022-09-06T10:19:59.847Z,2452.00
2022-09-06T10:20:59.843Z,2464.00
2022-09-06T10:21:59.844Z,2452.00
2022-09-06T10:22:59.842Z,2500.00
2022-09-06T10:24:59.827Z,2512.00
2022-09-06T10:25:59.844Z,2548.00
2022-09-06T10:26:59.821Z,2560.00
2022-09-06T10:28:10.991Z,2560.00
2022-09-06T10:28:59.813Z,2540.00
2022-09-06T10:29:59.802Z,2548.00
2022-09-06T10:30:59.857Z,2528.00
2022-09-06T10:31:59.795Z,2544.00
2022-09-06T10:32:59.791Z,2564.00
2022-09-06T10:33:59.788Z,2576.00
2022-09-06T10:34:59.782Z,2560.00
2022-09-06T10:35:59.788Z,2580.00
2022-09-06T10:36:59.779Z,2592.00
2022-09-06T10:37:59.770Z,2620.00
2022-09-06T10:39:03.679Z,2656.00
2022-09-06T10:39:59.811Z,2656.00
2022-09-06T10:40:59.757Z,2640.00
2022-09-06T10:41:59.756Z,2652.00
2022-09-06T10:42:59.744Z,2632.00
2022-09-06T10:43:59.741Z,2632.00
2022-09-06T10:44:59.739Z,2644.00
2022-09-06T10:45:59.731Z,2652.00
2022-09-06T10:46:59.726Z,2652.00
2022-09-06T10:47:59.721Z,2644.00
2022-09-06T10:48:59.724Z,2656.00
2022-09-06T10:49:59.714Z,2688.00
2022-09-06T10:50:59.706Z,2692.00
2022-09-06T10:51:59.702Z,2724.00
2022-09-06T10:52:59.704Z,2728.00
2022-09-06T10:53:59.693Z,2716.00
2022-09-06T10:54:59.687Z,2728.00
2022-09-06T10:56:01.452Z,2712.00
2022-09-06T10:56:59.680Z,2716.00
2022-09-06T10:59:59.668Z,2760.00
2022-09-06T11:00:59.672Z,2780.00
2022-09-06T11:01:59.828Z,2788.00
2022-09-06T11:04:04.175Z,2800.00
2022-09-06T11:05:59.638Z,2808.00
2022-09-06T11:06:59.631Z,2808.00
2022-09-06T11:08:59.810Z,2892.00
2022-09-06T11:09:59.617Z,2888.00
2022-09-06T11:10:59.613Z,2904.00
2022-09-06T11:11:59.608Z,2952.00
2022-09-06T11:12:59.612Z,2948.00
2022-09-06T11:14:02.532Z,2948.00
2022-09-06T11:14:59.596Z,2948.00
2022-09-06T11:15:59.647Z,2988.00
2022-09-06T11:16:59.586Z,3020.00
2022-09-06T11:17:59.581Z,3024.00
2022-09-06T11:18:59.578Z,3004.00
2022-09-06T11:19:59.571Z,2964.00
2022-09-06T11:20:59.570Z,2948.00
2022-09-06T11:21:59.564Z,2964.00
2022-09-06T11:22:59.563Z,2968.00
2022-09-06T11:23:59.625Z,2984.00
2022-09-06T11:24:59.547Z,2996.00
2022-09-06T11:25:59.544Z,2984.00
2022-09-06T11:26:59.536Z,2980.00
2022-09-06T11:27:59.532Z,2968.00
2022-09-06T11:28:59.527Z,2940.00
2022-09-06T11:29:59.518Z,2948.00
2022-09-06T11:30:59.523Z,2980.00
2022-09-06T11:32:59.508Z,3032.00
2022-09-06T11:34:01.274Z,2996.00
2022-09-06T11:34:59.496Z,2944.00
2022-09-06T11:35:59.490Z,2936.00
2022-09-06T11:36:59.501Z,2920.00
2022-09-06T11:37:59.480Z,2916.00
2022-09-06T11:38:59.480Z,2928.00
2022-09-06T11:40:59.467Z,2956.00
2022-09-06T11:41:59.464Z,2980.00
2022-09-06T11:42:59.615Z,2972.00
2022-09-06T11:43:59.456Z,2960.00
2022-09-06T11:44:59.447Z,2920.00
2022-09-06T11:45:59.473Z,2908.00
2022-09-06T11:46:59.441Z,2876.00
2022-09-06T11:47:59.435Z,2904.00
2022-09-06T11:48:59.437Z,2944.00
2022-09-06T11:49:59.432Z,2980.00
2022-09-06T11:50:59.435Z,2956.00
2022-09-06T11:51:59.410Z,2976.00
2022-09-06T11:52:59.425Z,2964.00
2022-09-06T11:53:59.403Z,2964.00
2022-09-06T11:54:59.395Z,2968.00
2022-09-06T11:55:59.392Z,2956.00
2022-09-06T11:56:59.391Z,2980.00
2022-09-06T11:57:59.383Z,2984.00
2022-09-06T11:58:59.377Z,2992.00
2022-09-06T11:59:59.371Z,3012.00
2022-09-06T12:00:59.368Z,3036.00
2022-09-06T12:01:59.370Z,3068.00
2022-09-06T12:05:00.409Z,3072.00
2022-09-06T12:05:59.345Z,3096.00
2022-09-06T12:06:59.338Z,3072.00
2022-09-06T12:07:59.332Z,3072.00
2022-09-06T12:08:59.328Z,3068.00
2022-09-06T12:09:59.323Z,3044.00
2022-09-06T12:10:59.315Z,3048.00
2022-09-06T12:11:59.320Z,3052.00
2022-09-06T12:12:59.314Z,3052.00
2022-09-06T12:13:59.303Z,3060.00
2022-09-06T12:14:59.300Z,3044.00
2022-09-06T12:15:59.370Z,3032.00
2022-09-06T12:16:59.291Z,3048.00
2022-09-06T12:17:59.288Z,3044.00
2022-09-06T12:18:59.277Z,3040.00
2022-09-06T12:19:59.272Z,3036.00
2022-09-06T12:20:59.270Z,3028.00
2022-09-06T12:21:59.263Z,3020.00
2022-09-06T12:22:59.256Z,2992.00
2022-09-06T12:23:59.273Z,3012.00
2022-09-06T12:24:59.247Z,2996.00
2022-09-06T12:25:59.246Z,2944.00
2022-09-06T12:26:59.241Z,2884.00
2022-09-06T12:27:59.239Z,2868.00
2022-09-06T12:28:59.233Z,2860.00
2022-09-06T12:29:59.232Z,2852.00
2022-09-06T12:30:59.286Z,2800.00
2022-09-06T12:31:59.215Z,2856.00
2022-09-06T12:32:59.211Z,672.00
2022-09-06T12:33:59.218Z,2908.00
2022-09-06T12:35:59.853Z,2808.00
2022-09-06T12:36:59.195Z,2824.00
2022-09-06T12:37:59.183Z,2832.00
2022-09-06T12:38:59.194Z,2880.00
2022-09-06T12:39:59.217Z,2884.00
2022-09-06T12:40:59.249Z,2852.00
2022-09-06T12:41:59.162Z,2808.00
2022-09-06T12:42:59.159Z,2868.00
2022-09-06T12:43:59.163Z,2876.00
2022-09-06T12:44:59.156Z,2916.00
2022-09-06T12:45:59.179Z,2928.00
2022-09-06T12:46:59.142Z,2964.00
2022-09-06T12:47:59.138Z,2920.00
2022-09-06T12:48:59.131Z,2916.00
2022-09-06T12:49:59.119Z,2912.00
2022-09-06T12:50:59.122Z,2892.00
2022-09-06T12:51:59.113Z,2880.00
2022-09-06T12:52:59.112Z,2908.00
2022-09-06T12:53:59.110Z,2920.00
2022-09-06T12:54:59.101Z,2944.00
2022-09-06T12:55:59.093Z,2920.00
2022-09-06T12:56:59.090Z,2896.00
2022-09-06T12:57:59.084Z,2904.00
2022-09-06T12:58:59.077Z,2892.00